Flight Track Log - Related Links

Times and Time Zones

All times are in EDT time to prevent confusion due to time zone crossing. See the SKQ225 flight status page for this flight to view local times or setup timezone preferences in your user account.

Time Position Orientation Groundspeed Altitude Reporting Facility
EDT Latitude Longitude Course Direction KTS MPH feet Rate Location/Type
Tue 04:01:44 AM 38.1708 -85.7128 44° Northeast 115 132 1,300  Level FAA TRACON SMA TRACON (SMA)
Tue 04:02:02 AM 38.1789 -85.7028 44° Northeast 130 150 1,600 1,135 Climbing FAA TRACON SMA TRACON (SMA)
Tue 04:02:21 AM 38.1897 -85.6914 40° Northeast 133 153 2,000 1,077 Climbing FAA TRACON SMA TRACON (SMA)
Tue 04:02:41 AM 38.1992 -85.6833 34° Northeast 136 157 2,300 1,050 Climbing FAA TRACON SMA TRACON (SMA)
Tue 04:03:01 AM 38.2075 -85.6728 45° Northeast 136 157 2,700 1,050 Climbing FAA TRACON SMA TRACON (SMA)
Tue 04:03:21 AM 38.2156 -85.6572 57° Northeast 138 159 3,000 1,050 Climbing FAA TRACON SMA TRACON (SMA)
Tue 04:03:41 AM 38.2222 -85.6450 55° Northeast 138 159 3,400 1,050 Climbing FAA TRACON SMA TRACON (SMA)
Tue 04:04:01 AM 38.2306 -85.6339 46° Northeast 140 161 3,700 1,050 Climbing FAA TRACON SMA TRACON (SMA)
Tue 04:04:21 AM 38.2417 -85.6208 43° Northeast 141 162 4,100 1,050 Climbing FAA TRACON SMA TRACON (SMA)
Tue 04:04:41 AM 38.2503 -85.6092 47° Northeast 143 165 4,400 1,050 Climbing FAA TRACON SMA TRACON (SMA)
Tue 04:05:01 AM 38.2581 -85.5975 50° Northeast 144 166 4,800 1,231 Climbing FAA TRACON SMA TRACON (SMA)
Tue 04:05:20 AM 38.2689 -85.5831 46° Northeast 144 166 5,200 1,050 Climbing FAA TRACON SMA TRACON (SMA)
Tue 04:05:41 AM 38.2775 -85.5719 45° Northeast 144 166 5,500 1,024 Climbing FAA TRACON SMA TRACON (SMA)
Tue 04:06:01 AM 38.2861 -85.5603 47° Northeast 146 168 5,900 1,171 Climbing FAA TRACON SMA TRACON (SMA)
Tue 04:06:22 AM 38.2967 -85.5458 47° Northeast 145 167 6,300 1,317 Climbing FAA TRACON SMA TRACON (SMA)
Tue 04:06:42 AM 38.3042 -85.5344 50° Northeast 139 160 6,800 900 Climbing FAA TRACON SMA TRACON (SMA)
Tue 04:07:02 AM 38.3156 -85.5197 45° Northeast 149 171 6,900 154 Climbing FAA TRACON SMA TRACON (SMA)
Tue 04:07:21 AM 38.3264 -85.5053 46° Northeast 174 200 6,900  Level FAA TRACON SMA TRACON (SMA)
Tue 04:07:41 AM 38.3381 -85.4892 47° Northeast 196 226 6,900  Level FAA TRACON SMA TRACON (SMA)
Tue 04:08:01 AM 38.3500 -85.4728 47° Northeast 205 236 6,900  Level FAA TRACON SMA TRACON (SMA)
Tue 04:08:21 AM 38.3661 -85.4522 45° Northeast 212 244 6,900  Level FAA TRACON SMA TRACON (SMA)
Tue 04:08:41 AM 38.3786 -85.4350 47° Northeast 215 247 6,900  Level FAA TRACON SMA TRACON (SMA)
Tue 04:09:00 AM 38.3914 -85.4175 47° Northeast 218 251 6,900  Level FAA TRACON SMA TRACON (SMA)
Tue 04:09:21 AM 38.4078 -85.3969 45° Northeast 216 249 6,900  Level FAA TRACON SMA TRACON (SMA)
Tue 04:09:41 AM 38.4194 -85.3794 50° Northeast 210 242 6,900  Level FAA TRACON SMA TRACON (SMA)
Tue 04:10:01 AM 38.4325 -85.3633 44° Northeast 212 244 6,900  Level FAA TRACON SMA TRACON (SMA)
Tue 04:10:21 AM 38.4486 -85.3431 45° Northeast 210 242 6,900 150 Level FAA TRACON SMA TRACON (SMA)
Tue 04:10:41 AM 38.4608 -85.3264 47° Northeast 210 242 7,000 150 Climbing FAA TRACON SMA TRACON (SMA)
Tue 04:11:01 AM 38.4728 -85.3089 49° Northeast 210 242 7,000 -146 Level FAA TRACON SMA TRACON (SMA)
Tue 04:11:22 AM 38.4886 -85.2886 45° Northeast 213 245 6,900 -146 Descending FAA TRACON SMA TRACON (SMA)
Tue 04:11:42 AM 38.5014 -85.2717 46° Northeast 213 245 6,900 154 Level FAA TRACON SMA TRACON (SMA)
Tue 04:12:01 AM 38.5136 -85.2553 46° Northeast 210 242 7,000 154 Climbing FAA TRACON SMA TRACON (SMA)
Tue 04:12:21 AM 38.5292 -85.2344 46° Northeast 211 243 7,000 -150 Level FAA TRACON SMA TRACON (SMA)
Tue 04:12:41 AM 38.5419 -85.2175 46° Northeast 215 247 6,900  Descending FAA TRACON SMA TRACON (SMA)
Tue 04:13:01 AM 38.5542 -85.2003 48° Northeast 212 244 7,000  Climbing FAA TRACON SMA TRACON (SMA)
Tue 04:13:24 AM 38.5697 -85.1794 46° Northeast 212 244 6,900 -140 Descending FAA TRACON SMA TRACON (SMA)
Tue 04:13:44 AM 38.5869 -85.1600 41° Northeast 214 246 6,900  Level FAA TRACON SMA TRACON (SMA)
Tue 04:14:01 AM 38.5958 -85.1475 48° Northeast 210 242 6,900  Level FAA TRACON SMA TRACON (SMA)
Tue 04:14:21 AM 38.6108 -85.1261 48° Northeast 208 239 6,900  Level FAA TRACON SMA TRACON (SMA)
Tue 04:14:41 AM 38.6233 -85.1100 45° Northeast 207 238 6,900  Level FAA TRACON SMA TRACON (SMA)
Tue 04:15:01 AM 38.6358 -85.0944 44° Northeast 206 237 6,900 150 Level FAA TRACON SMA TRACON (SMA)
Tue 04:15:21 AM 38.6508 -85.0736 47° Northeast 207 238 7,000  Climbing FAA TRACON SMA TRACON (SMA)
Tue 04:15:41 AM 38.6625 -85.0569 48° Northeast 205 236 6,900 -150 Descending FAA TRACON SMA TRACON (SMA)
Tue 04:16:01 AM 38.6781 -85.0369 45° Northeast 206 237 6,900  Level FAA TRACON SMA TRACON (SMA)
Tue 04:16:21 AM 38.6900 -85.0200 48° Northeast 207 238 6,900 150 Level FAA TRACON SMA TRACON (SMA)
Tue 04:16:41 AM 38.7017 -85.0039 47° Northeast 205 236 7,000  Climbing FAA TRACON SMA TRACON (SMA)
Tue 04:17:01 AM 38.7136 -84.9872 47° Northeast 205 236 6,900 -150 Descending FAA TRACON SMA TRACON (SMA)
Tue 04:17:21 AM 38.7283 -84.9661 48° Northeast 205 236 6,900  Level FAA TRACON SMA TRACON (SMA)
Tue 04:17:41 AM 38.7411 -84.9508 43° Northeast 205 236 6,900 150 Level FAA TRACON SMA TRACON (SMA)
Tue 04:18:01 AM 38.7528 -84.9342 48° Northeast 205 236 7,000  Climbing FAA TRACON SMA TRACON (SMA)
Tue 04:18:22 AM 38.7686 -84.9144 44° Northeast 205 236 6,900 -150 Descending FAA TRACON SMA TRACON (SMA)
Tue 04:18:41 AM 38.7806 -84.8981 47° Northeast 205 236 6,900  Level FAA TRACON SMA TRACON (SMA)
Tue 04:19:01 AM 38.7933 -84.8822 44° Northeast 206 237 6,900 150 Level FAA TRACON SMA TRACON (SMA)
Tue 04:19:21 AM 38.8083 -84.8617 47° Northeast 205 236 7,000  Climbing FAA TRACON SMA TRACON (SMA)
Tue 04:19:41 AM 38.8214 -84.8464 42° Northeast 206 237 6,900  Descending FAA TRACON SMA TRACON (SMA)
Tue 04:20:01 AM 38.8361 -84.8253 48° Northeast 207 238 7,000 343 Climbing FAA TRACON SMA TRACON (SMA)
Tue 04:20:16 AM 38.8417 -84.8117 62° Northeast 205 236 7,100  Climbing Indianapolis Center
Tue 04:21:16 AM 38.8819 -84.7575 46° Northeast 208 239 7,000 -69 Descending Indianapolis Center
Tue 04:21:43 AM 38.9000 -84.7333 46° Northeast 207 238 7,000 69 Level Cincinnati TRACON
Tue 04:22:43 AM 38.9333 -84.6833 49° Northeast 208 239 7,100  Climbing Cincinnati TRACON
Tue 04:23:43 AM 38.9833 -84.6167 46° Northeast 209 241 7,000 -50 Descending Cincinnati TRACON
Tue 04:24:43 AM 39.0167 -84.5667 49° Northeast 208 239 7,000  Level Cincinnati TRACON
Tue 04:25:43 AM 39.0500 -84.5167 49° Northeast 208 239 7,000  Level Cincinnati TRACON
Tue 04:27:19 AM 39.1167 -84.4339 44° Northeast 208 239 7,000  Level Indianapolis Center
Tue 04:28:13 AM 39.1536 -84.3858 45° Northeast 208 239 7,000  Level Indianapolis Center
Tue 04:29:13 AM 39.1917 -84.3289 49° Northeast 208 239 7,000 50 Level Indianapolis Center
Tue 04:30:14 AM 39.2342 -84.2697 47° Northeast 209 241 7,100 49 Climbing Indianapolis Center
Tue 04:31:15 AM 39.2742 -84.2158 46° Northeast 210 242 7,100  Level Indianapolis Center
Tue 04:32:15 AM 39.3142 -84.1617 46° Northeast 209 241 7,100  Level Indianapolis Center
Tue 04:33:16 AM 39.3542 -84.1047 48° Northeast 211 243 7,100 -47 Level Indianapolis Center
Tue 04:34:22 AM 39.3958 -84.0453 48° Northeast 209 241 7,000 -50 Descending Indianapolis Center
Tue 04:35:17 AM 39.4317 -83.9961 47° Northeast 210 242 7,000  Level Indianapolis Center
Tue 04:36:18 AM 39.4719 -83.9364 49° Northeast 211 243 7,000 50 Level Indianapolis Center
Tue 04:37:18 AM 39.5142 -83.8794 46° Northeast 212 244 7,100 50 Climbing Indianapolis Center
Tue 04:38:19 AM 39.5539 -83.8225 48° Northeast 211 243 7,100  Level Indianapolis Center
Tue 04:39:19 AM 39.5939 -83.7653 48° Northeast 211 243 7,100 -50 Level Indianapolis Center
Tue 04:40:20 AM 39.6358 -83.7108 45° Northeast 213 245 7,000 -49 Descending Indianapolis Center
Tue 04:41:21 AM 39.6736 -83.6531 50° Northeast 211 243 7,000 50 Level Indianapolis Center
Tue 04:42:21 AM 39.7133 -83.5983 47° Northeast 212 244 7,100 -286 Climbing Indianapolis Center
Tue 04:43:27 AM 39.7583 -83.5344 47° Northeast 216 249 6,400 -472 Descending Indianapolis Center
Tue 04:44:28 AM 39.8006 -83.4736 48° Northeast 224 258 6,100 -541 Descending Indianapolis Center
Tue 04:45:29 AM 39.8442 -83.4108 48° Northeast 216 249 5,300 -942 Descending Indianapolis Center
Tue 04:46:29 AM 39.8828 -83.3572 47° Northeast 223 257 4,200 -595 Descending Indianapolis Center
Tue 04:47:30 AM 39.9219 -83.2997 48° Northeast 222 255 4,100 -98 Descending Indianapolis Center
Tue 04:49:00 AM 39.9700 -83.2187 52° Northeast  Level FlightAware Approximate
Tue 04:56:00 AM 40.0667 -83.0667 37° Northeast  Level FlightAware Approximate

Login

Don't have an account? Register now (free) for customized features, flight alerts, and more!